LFMT/MPL METAR and TAF weather

Enter ICAO airport designator
Station Type Date Time Source
LFMT METAR 2019/10/20 19:30 UTC NOAA

LFMT 201930Z AUTO 15022KT 9999 ///TCU 20/18 Q1010 TEMPO 4000 SHRA BECMG VRB03KT OVC014


Station Type Date Time Source
LFMT Decoded METAR 2019/10/20 19:30 UTC NOAA

Montpellier, France (LFMT) 43-35N 003-58E 6M
Oct 20, 2019 - 03:30 PM EDT / 2019.10.20 1930 UTC
Wind: from the SSE (150 degrees) at 25 MPH (22 KT):0
Visibility: greater than 7 mile(s):0
Weather: Towering cumulus clouds observed
Temperature: 68 F (20 C)
Dew Point: 64 F (18 C)
Relative Humidity: 88%
Pressure (altimeter): 29.83 in. Hg (1010 hPa)
ob: LFMT 201930Z AUTO 15022KT 9999 ///TCU 20/18 Q1010 TEMPO 4000 SHRA BECMG VRB03KT OVC014
cycle: 19

Station Type Date Time Source
LFMT TAF 2019/10/20 16:52 UTC NOAA

TAF
AMD LFMT 201643Z 2016/2115 14025G40KT 9999 OVC014
TEMPO 2016/2102 4000 SHRA BKN015TCU
BECMG 2020/2022 VRB03KT
BECMG 2101/2103 NSW
BECMG 2107/2109 RA BKN020

Example: see airport list